Minerva Astra — 9HDW7 — position and weather

sailwx.info

Track history (hours):
 
Tides and Currents Weather Stations Pressure Air Temp Water Temp Dewpoint Dewpoint Depression Visibility Wind Speed Wind Dir Waves Ship Positions

Minerva Astra

Last reported at 2014-Oct-21 09:05 UTC. Time now 2014-Oct-22 12:26 UTC.
Position N 37°46' E 007°44'.

Length 248 m; draft 12.4 m.

Type: Tanker. MMSI: 256703000.

Date/timePositionNaut miles runAvg speedWind from/ knotsBaromVisibWave heightAir tempDewpointWater temp
2014-Oct-21 09:05N 37°46' E 007°44'2311.9
2014-Oct-21 07:10N 37°50' E 008°12'812.2
2014-Oct-21 06:33N 37°51' E 008°22'1212.1
2014-Oct-21 05:33N 37°52' E 008°37'1212.0
2014-Oct-21 04:33N 37°54' E 008°52'1211.7
2014-Oct-21 03:33N 37°53' E 009°07'1211.8
2014-Oct-21 02:33N 37°51' E 009°21'1111.4
2014-Oct-21 01:33N 37°48' E 009°35'1311.4
2014-Oct-21 00:26N 37°42' E 009°50'1211.4
2014-Oct-20 23:21N 37°39' E 010°05'2310.7
2014-Oct-20 21:11N 37°35' E 010°34'50011.7
2014-Oct-19 02:26N 31°41' E 017°42'69 4.6
2014-Oct-18 11:33N 30°40' E 018°22'0 0.2
2014-Oct-18 10:21N 30°41' E 018°22'0 0.1
2014-Oct-18 09:32N 30°41' E 018°22'2 0.1
2014-Oct-17 15:17N 30°42' E 018°23'1 0.9
2014-Oct-17 14:31N 30°42' E 018°23'0 0.0
2014-Oct-17 13:31N 30°42' E 018°23'0 0.0
2014-Oct-17 12:31N 30°42' E 018°23'0 0.0
2014-Oct-17 11:31N 30°42' E 018°23'0 0.0
2014-Oct-17 10:28N 30°42' E 018°23'0 0.0
2014-Oct-17 09:31N 30°42' E 018°23'0 0.0
2014-Oct-17 08:31N 30°42' E 018°23'0 0.0
2014-Oct-17 07:28N 30°42' E 018°23'0 0.0
2014-Oct-17 06:31N 30°42' E 018°23'28 2.0
2014-Oct-16 16:18N 31°09' E 018°14'20 9.9
2014-Oct-16 14:15N 31°24' E 017°58'910.1
2014-Oct-16 13:21N 31°31' E 017°51'9 9.9
2014-Oct-16 12:24N 31°38' E 017°44'8 9.9
2014-Oct-16 11:34N 31°45' E 017°38'1110.0
2014-Oct-16 10:26N 31°53' E 017°29'18110.1
2014-Oct-15 16:29N 34°10' E 015°07'5210.4
2014-Oct-15 11:30N 34°49' E 014°26'1210.3
2014-Oct-15 10:21N 34°58' E 014°17'7 9.0
2014-Oct-15 09:34N 35°03' E 014°11'6 6.5
2014-Oct-15 08:34N 35°08' E 014°06'7 7.1
2014-Oct-15 07:33N 35°14' E 013°60'1010.4
2014-Oct-15 06:34N 35°22' E 013°52'1010.1
2014-Oct-15 05:34N 35°29' E 013°43'1110.6
2014-Oct-15 04:34N 35°37' E 013°35'1110.7
2014-Oct-15 03:33N 35°45' E 013°26'1010.3
2014-Oct-15 02:33N 35°53' E 013°18'1110.5
2014-Oct-15 01:33N 36°01' E 013°09'1010.2
2014-Oct-15 00:34N 36°09' E 013°01'1010.1
2014-Oct-14 23:34N 36°16' E 012°53'1010.3
2014-Oct-14 22:33N 36°24' E 012°45'1010.1
2014-Oct-14 21:34N 36°32' E 012°36'1010.2
2014-Oct-14 20:34N 36°39' E 012°28'1010.2
2014-Oct-14 19:33N 36°47' E 012°20'1010.5
2014-Oct-14 18:34N 36°55' E 012°11'1110.5
2014-Oct-14 17:34N 37°01' E 011°60'1110.7
2014-Oct-14 16:33N 37°06' E 011°48'1110.7
2014-Oct-14 15:34N 37°11' E 011°36'1010.4
2014-Oct-14 14:33N 37°16' E 011°25'1010.5
2014-Oct-14 13:33N 37°21' E 011°13'1010.3
2014-Oct-14 12:33N 37°26' E 011°02'49 9.2
2014-Oct-14 07:13N 37°47' E 010°06'5 7.7
2014-Oct-14 06:33N 37°50' E 010°00'1110.1
2014-Oct-14 05:27N 37°55' E 009°48'1010.8
2014-Oct-14 04:34N 37°60' E 009°37'1111.0
2014-Oct-14 03:31N 38°05' E 009°25'1111.0
2014-Oct-14 02:33N 38°10' E 009°13'1111.1
2014-Oct-14 01:32N 38°16' E 009°00'1111.1
2014-Oct-14 00:32N 38°21' E 008°48'1111.0
2014-Oct-13 23:32N 38°26' E 008°35'1110.9
2014-Oct-13 22:33N 38°31' E 008°23'1111.1
2014-Oct-13 21:33N 38°37' E 008°11'242 9.9
2014-Oct-12 21:04N 40°27' E 003°31'510.5
2014-Oct-12 20:32N 40°28' E 003°25'1110.7
2014-Oct-12 19:34N 40°32' E 003°11'1111.2
2014-Oct-12 18:33N 40°35' E 002°57'1111.1
2014-Oct-12 17:33N 40°39' E 002°44'1111.2
2014-Oct-12 16:33N 40°42' E 002°30'1111.0
2014-Oct-12 15:33N 40°46' E 002°16'1110.9
2014-Oct-12 14:33N 40°49' E 002°02'1010.4
2014-Oct-12 13:33N 40°52' E 001°49'1010.3
2014-Oct-12 12:33N 40°55' E 001°36'1010.2
2014-Oct-12 11:33N 40°59' E 001°23'10 9.5
2014-Oct-12 10:30N 41°05' E 001°12'0 0.1
2014-Oct-12 04:32N 41°05' E 001°12'0 0.0
2014-Oct-11 19:15N 41°05' E 001°12'  
Track history (hours):
 
Tides and Currents Weather Stations Pressure Air Temp Water Temp Dewpoint Dewpoint Depression Visibility Wind Speed Wind Dir Waves Ship Positions

Minerva Astra

Last reported at 2014-Oct-21 09:05 UTC. Time now 2014-Oct-22 12:26 UTC.
Position N 37°46' E 007°44'.

Length 248 m; draft 12.4 m.

Type: Tanker. MMSI: 256703000.

Date/timePositionNaut miles runAvg speedWind from/ knotsBaromVisibWave heightAir tempDewpointWater temp
2014-Oct-21 09:05N 37°46' E 007°44'2311.9
2014-Oct-21 07:10N 37°50' E 008°12'812.2
2014-Oct-21 06:33N 37°51' E 008°22'1212.1
2014-Oct-21 05:33N 37°52' E 008°37'1212.0
2014-Oct-21 04:33N 37°54' E 008°52'1211.7
2014-Oct-21 03:33N 37°53' E 009°07'1211.8
2014-Oct-21 02:33N 37°51' E 009°21'1111.4
2014-Oct-21 01:33N 37°48' E 009°35'1311.4
2014-Oct-21 00:26N 37°42' E 009°50'1211.4
2014-Oct-20 23:21N 37°39' E 010°05'2310.7
2014-Oct-20 21:11N 37°35' E 010°34'50011.7
2014-Oct-19 02:26N 31°41' E 017°42'69 4.6
2014-Oct-18 11:33N 30°40' E 018°22'0 0.2
2014-Oct-18 10:21N 30°41' E 018°22'0 0.1
2014-Oct-18 09:32N 30°41' E 018°22'2 0.1
2014-Oct-17 15:17N 30°42' E 018°23'1 0.9
2014-Oct-17 14:31N 30°42' E 018°23'0 0.0
2014-Oct-17 13:31N 30°42' E 018°23'0 0.0
2014-Oct-17 12:31N 30°42' E 018°23'0 0.0
2014-Oct-17 11:31N 30°42' E 018°23'0 0.0
2014-Oct-17 10:28N 30°42' E 018°23'0 0.0
2014-Oct-17 09:31N 30°42' E 018°23'0 0.0
2014-Oct-17 08:31N 30°42' E 018°23'0 0.0
2014-Oct-17 07:28N 30°42' E 018°23'0 0.0
2014-Oct-17 06:31N 30°42' E 018°23'28 2.0
2014-Oct-16 16:18N 31°09' E 018°14'20 9.9
2014-Oct-16 14:15N 31°24' E 017°58'910.1
2014-Oct-16 13:21N 31°31' E 017°51'9 9.9
2014-Oct-16 12:24N 31°38' E 017°44'8 9.9
2014-Oct-16 11:34N 31°45' E 017°38'1110.0
2014-Oct-16 10:26N 31°53' E 017°29'18110.1
2014-Oct-15 16:29N 34°10' E 015°07'5210.4
2014-Oct-15 11:30N 34°49' E 014°26'1210.3
2014-Oct-15 10:21N 34°58' E 014°17'7 9.0
2014-Oct-15 09:34N 35°03' E 014°11'6 6.5
2014-Oct-15 08:34N 35°08' E 014°06'7 7.1
2014-Oct-15 07:33N 35°14' E 013°60'1010.4
2014-Oct-15 06:34N 35°22' E 013°52'1010.1
2014-Oct-15 05:34N 35°29' E 013°43'1110.6
2014-Oct-15 04:34N 35°37' E 013°35'1110.7
2014-Oct-15 03:33N 35°45' E 013°26'1010.3
2014-Oct-15 02:33N 35°53' E 013°18'1110.5
2014-Oct-15 01:33N 36°01' E 013°09'1010.2
2014-Oct-15 00:34N 36°09' E 013°01'1010.1
2014-Oct-14 23:34N 36°16' E 012°53'1010.3
2014-Oct-14 22:33N 36°24' E 012°45'1010.1
2014-Oct-14 21:34N 36°32' E 012°36'1010.2
2014-Oct-14 20:34N 36°39' E 012°28'1010.2
2014-Oct-14 19:33N 36°47' E 012°20'1010.5
2014-Oct-14 18:34N 36°55' E 012°11'1110.5
2014-Oct-14 17:34N 37°01' E 011°60'1110.7
2014-Oct-14 16:33N 37°06' E 011°48'1110.7
2014-Oct-14 15:34N 37°11' E 011°36'1010.4
2014-Oct-14 14:33N 37°16' E 011°25'1010.5
2014-Oct-14 13:33N 37°21' E 011°13'1010.3
2014-Oct-14 12:33N 37°26' E 011°02'49 9.2
2014-Oct-14 07:13N 37°47' E 010°06'5 7.7
2014-Oct-14 06:33N 37°50' E 010°00'1110.1
2014-Oct-14 05:27N 37°55' E 009°48'1010.8
2014-Oct-14 04:34N 37°60' E 009°37'1111.0
2014-Oct-14 03:31N 38°05' E 009°25'1111.0
2014-Oct-14 02:33N 38°10' E 009°13'1111.1
2014-Oct-14 01:32N 38°16' E 009°00'1111.1
2014-Oct-14 00:32N 38°21' E 008°48'1111.0
2014-Oct-13 23:32N 38°26' E 008°35'1110.9
2014-Oct-13 22:33N 38°31' E 008°23'1111.1
2014-Oct-13 21:33N 38°37' E 008°11'242 9.9
2014-Oct-12 21:04N 40°27' E 003°31'510.5
2014-Oct-12 20:32N 40°28' E 003°25'1110.7
2014-Oct-12 19:34N 40°32' E 003°11'1111.2
2014-Oct-12 18:33N 40°35' E 002°57'1111.1
2014-Oct-12 17:33N 40°39' E 002°44'1111.2
2014-Oct-12 16:33N 40°42' E 002°30'1111.0
2014-Oct-12 15:33N 40°46' E 002°16'1110.9
2014-Oct-12 14:33N 40°49' E 002°02'1010.4
2014-Oct-12 13:33N 40°52' E 001°49'1010.3
2014-Oct-12 12:33N 40°55' E 001°36'1010.2
2014-Oct-12 11:33N 40°59' E 001°23'10 9.5
2014-Oct-12 10:30N 41°05' E 001°12'0 0.1
2014-Oct-12 04:32N 41°05' E 001°12'0 0.0
2014-Oct-11 19:15N 41°05' E 001°12'  

Dump ship's entire track history